sensor_id;sensor_type;location;lat;lon;timestamp;P1;durP1;ratioP1;P2;durP2;ratioP2
71534;SDS011;59357;51.514;7.438;2022-07-10T02:40:26;2.97;;;2.10;;
71534;SDS011;59357;51.514;7.438;2022-07-10T02:42:54;8.97;;;2.27;;
71534;SDS011;59357;51.514;7.438;2022-07-10T05:55:39;6.93;;;2.07;;
71534;SDS011;59357;51.514;7.438;2022-07-10T09:10:18;16.07;;;6.53;;
71534;SDS011;59357;51.514;7.438;2022-07-10T09:50:30;8.60;;;5.00;;
71534;SDS011;59357;51.514;7.438;2022-07-10T10:27:03;13.90;;;8.02;;
71534;SDS011;59357;51.514;7.438;2022-07-10T12:01:21;5.77;;;5.53;;
71534;SDS011;59357;51.514;7.438;2022-07-10T12:44:29;17.63;;;11.67;;
71534;SDS011;59357;51.514;7.438;2022-07-10T14:16:00;6.70;;;3.37;;
71534;SDS011;59357;51.514;7.438;2022-07-10T14:19:02;6.50;;;3.50;;
71534;SDS011;59357;51.514;7.438;2022-07-10T14:21:30;1.38;;;1.27;;
71534;SDS011;59357;51.514;7.438;2022-07-10T14:25:34;1.20;;;1.10;;
71534;SDS011;59357;51.514;7.438;2022-07-10T14:28:42;0.80;;;0.80;;
71534;SDS011;59357;51.514;7.438;2022-07-10T14:31:11;0.90;;;0.90;;
71534;SDS011;59357;51.514;7.438;2022-07-10T14:37:11;15.18;;;9.85;;
71534;SDS011;59357;51.514;7.438;2022-07-10T14:42:51;44.97;;;22.10;;
71534;SDS011;59357;51.514;7.438;2022-07-10T14:50:36;32.83;;;17.17;;
71534;SDS011;59357;51.514;7.438;2022-07-10T14:53:08;18.87;;;10.33;;
71534;SDS011;59357;51.514;7.438;2022-07-10T14:55:51;5.40;;;2.60;;
71534;SDS011;59357;51.514;7.438;2022-07-10T14:58:17;2.00;;;1.90;;
71534;SDS011;59357;51.514;7.438;2022-07-10T15:00:52;2.70;;;2.20;;
71534;SDS011;59357;51.514;7.438;2022-07-10T15:03:21;22.30;;;11.93;;
71534;SDS011;59357;51.514;7.438;2022-07-10T15:12:35;2.80;;;2.60;;
71534;SDS011;59357;51.514;7.438;2022-07-10T15:15:04;2.97;;;2.87;;
71534;SDS011;59357;51.514;7.438;2022-07-10T15:17:34;2.73;;;2.50;;
71534;SDS011;59357;51.514;7.438;2022-07-10T15:23:05;31.77;;;16.70;;
71534;SDS011;59357;51.514;7.438;2022-07-10T15:25:51;5.13;;;4.60;;
71534;SDS011;59357;51.514;7.438;2022-07-10T15:28:56;6.53;;;4.70;;
71534;SDS011;59357;51.514;7.438;2022-07-10T15:31:34;17.87;;;7.50;;
71534;SDS011;59357;51.514;7.438;2022-07-10T15:35:13;4.47;;;4.00;;
71534;SDS011;59357;51.514;7.438;2022-07-10T15:37:40;3.17;;;2.97;;
71534;SDS011;59357;51.514;7.438;2022-07-10T15:44:38;3.10;;;2.80;;
71534;SDS011;59357;51.514;7.438;2022-07-10T15:47:07;3.53;;;2.10;;
71534;SDS011;59357;51.514;7.438;2022-07-10T15:49:44;3.43;;;2.87;;
71534;SDS011;59357;51.514;7.438;2022-07-10T15:52:16;2.77;;;2.37;;
71534;SDS011;59357;51.514;7.438;2022-07-10T15:54:51;2.10;;;2.00;;
71534;SDS011;59357;51.514;7.438;2022-07-10T15:57:31;4.17;;;2.77;;
71534;SDS011;59357;51.514;7.438;2022-07-10T16:03:35;2.30;;;2.10;;
71534;SDS011;59357;51.514;7.438;2022-07-10T16:06:25;2.83;;;2.63;;
71534;SDS011;59357;51.514;7.438;2022-07-10T16:08:57;2.80;;;2.70;;
71534;SDS011;59357;51.514;7.438;2022-07-10T16:11:28;2.20;;;2.10;;
71534;SDS011;59357;51.514;7.438;2022-07-10T16:13:54;2.50;;;2.40;;
71534;SDS011;59357;51.514;7.438;2022-07-10T16:16:43;5.10;;;4.30;;
71534;SDS011;59357;51.514;7.438;2022-07-10T16:19:09;3.67;;;3.33;;
71534;SDS011;59357;51.514;7.438;2022-07-10T16:21:40;2.10;;;2.10;;
71534;SDS011;59357;51.514;7.438;2022-07-10T16:24:06;4.07;;;2.23;;
71534;SDS011;59357;51.514;7.438;2022-07-10T16:26:32;2.63;;;2.43;;
71534;SDS011;59357;51.514;7.438;2022-07-10T16:29:02;2.60;;;2.50;;
71534;SDS011;59357;51.514;7.438;2022-07-10T16:31:39;2.70;;;2.60;;
71534;SDS011;59357;51.514;7.438;2022-07-10T16:34:20;4.23;;;2.13;;
71534;SDS011;59357;51.514;7.438;2022-07-10T16:37:01;4.10;;;3.73;;
71534;SDS011;59357;51.514;7.438;2022-07-10T16:39:30;3.70;;;3.50;;
71534;SDS011;59357;51.514;7.438;2022-07-10T16:41:57;6.53;;;4.13;;
71534;SDS011;59357;51.514;7.438;2022-07-10T16:44:27;2.30;;;2.20;;
71534;SDS011;59357;51.514;7.438;2022-07-10T16:46:56;2.50;;;2.40;;
71534;SDS011;59357;51.514;7.438;2022-07-10T16:49:27;5.73;;;5.33;;
71534;SDS011;59357;51.514;7.438;2022-07-10T16:51:53;3.60;;;3.40;;
71534;SDS011;59357;51.514;7.438;2022-07-10T16:54:24;6.60;;;6.10;;
71534;SDS011;59357;51.514;7.438;2022-07-10T16:56:54;4.27;;;3.97;;
71534;SDS011;59357;51.514;7.438;2022-07-10T16:59:20;10.27;;;7.10;;
71534;SDS011;59357;51.514;7.438;2022-07-10T17:01:48;6.10;;;4.27;;
71534;SDS011;59357;51.514;7.438;2022-07-10T17:04:14;5.87;;;5.20;;
71534;SDS011;59357;51.514;7.438;2022-07-10T17:07:06;3.43;;;2.77;;
71534;SDS011;59357;51.514;7.438;2022-07-10T17:09:36;3.07;;;2.80;;
71534;SDS011;59357;51.514;7.438;2022-07-10T17:12:03;6.03;;;4.70;;
71534;SDS011;59357;51.514;7.438;2022-07-10T17:14:31;2.80;;;2.70;;
71534;SDS011;59357;51.514;7.438;2022-07-10T17:21:27;9.50;;;7.70;;
71534;SDS011;59357;51.514;7.438;2022-07-10T17:23:53;8.57;;;7.17;;
71534;SDS011;59357;51.514;7.438;2022-07-10T17:26:23;5.53;;;2.30;;
71534;SDS011;59357;51.514;7.438;2022-07-10T17:28:53;3.67;;;3.57;;
71534;SDS011;59357;51.514;7.438;2022-07-10T17:31:20;5.57;;;3.30;;
71534;SDS011;59357;51.514;7.438;2022-07-10T17:33:46;2.60;;;2.40;;
71534;SDS011;59357;51.514;7.438;2022-07-10T17:36:12;3.53;;;3.23;;
71534;SDS011;59357;51.514;7.438;2022-07-10T17:38:41;2.30;;;2.10;;
71534;SDS011;59357;51.514;7.438;2022-07-10T17:41:07;5.50;;;2.40;;
71534;SDS011;59357;51.514;7.438;2022-07-10T17:43:33;7.93;;;4.70;;
71534;SDS011;59357;51.514;7.438;2022-07-10T17:46:15;2.20;;;2.10;;
71534;SDS011;59357;51.514;7.438;2022-07-10T18:01:20;65.00;;;32.20;;
71534;SDS011;59357;51.514;7.438;2022-07-10T18:08:03;13.10;;;7.73;;
71534;SDS011;59357;51.514;7.438;2022-07-10T18:10:33;2.20;;;2.10;;
71534;SDS011;59357;51.514;7.438;2022-07-10T18:12:59;18.07;;;10.03;;
71534;SDS011;59357;51.514;7.438;2022-07-10T18:15:25;3.30;;;3.13;;
71534;SDS011;59357;51.514;7.438;2022-07-10T18:17:53;4.13;;;3.80;;
71534;SDS011;59357;51.514;7.438;2022-07-10T18:23:31;62.80;;;26.57;;
71534;SDS011;59357;51.514;7.438;2022-07-10T18:25:57;4.63;;;3.73;;
71534;SDS011;59357;51.514;7.438;2022-07-10T18:28:23;4.93;;;4.40;;
71534;SDS011;59357;51.514;7.438;2022-07-10T18:30:52;6.27;;;3.53;;
71534;SDS011;59357;51.514;7.438;2022-07-10T18:33:22;6.87;;;2.10;;
71534;SDS011;59357;51.514;7.438;2022-07-10T18:36:07;2.20;;;1.50;;
71534;SDS011;59357;51.514;7.438;2022-07-10T18:38:35;3.80;;;2.17;;
71534;SDS011;59357;51.514;7.438;2022-07-10T18:41:02;3.47;;;2.30;;
71534;SDS011;59357;51.514;7.438;2022-07-10T18:43:30;4.40;;;3.30;;
71534;SDS011;59357;51.514;7.438;2022-07-10T18:45:59;4.03;;;3.73;;
71534;SDS011;59357;51.514;7.438;2022-07-10T18:48:26;2.80;;;2.60;;
71534;SDS011;59357;51.514;7.438;2022-07-10T18:50:56;4.93;;;2.10;;
71534;SDS011;59357;51.514;7.438;2022-07-10T18:53:26;2.10;;;1.90;;
71534;SDS011;59357;51.514;7.438;2022-07-10T18:55:52;2.00;;;1.70;;
71534;SDS011;59357;51.514;7.438;2022-07-10T18:58:18;2.17;;;1.97;;
71534;SDS011;59357;51.514;7.438;2022-07-10T19:00:48;6.20;;;1.73;;
71534;SDS011;59357;51.514;7.438;2022-07-10T19:03:19;2.13;;;2.00;;
71534;SDS011;59357;51.514;7.438;2022-07-10T19:05:45;4.47;;;2.30;;
71534;SDS011;59357;51.514;7.438;2022-07-10T19:08:22;2.53;;;1.83;;
71534;SDS011;59357;51.514;7.438;2022-07-10T19:10:50;2.17;;;1.63;;
71534;SDS011;59357;51.514;7.438;2022-07-10T19:13:17;2.47;;;2.10;;
71534;SDS011;59357;51.514;7.438;2022-07-10T19:15:47;2.83;;;1.47;;
71534;SDS011;59357;51.514;7.438;2022-07-10T19:18:17;6.40;;;2.50;;
71534;SDS011;59357;51.514;7.438;2022-07-10T19:20:45;1.97;;;1.87;;
71534;SDS011;59357;51.514;7.438;2022-07-10T19:23:27;2.90;;;1.80;;
71534;SDS011;59357;51.514;7.438;2022-07-10T19:26:14;4.93;;;3.37;;
71534;SDS011;59357;51.514;7.438;2022-07-10T19:28:49;2.93;;;2.20;;
71534;SDS011;59357;51.514;7.438;2022-07-10T19:31:19;4.07;;;2.30;;
71534;SDS011;59357;51.514;7.438;2022-07-10T19:33:45;2.60;;;2.40;;
71534;SDS011;59357;51.514;7.438;2022-07-10T19:36:34;4.27;;;2.10;;
71534;SDS011;59357;51.514;7.438;2022-07-10T19:39:14;4.63;;;2.60;;
71534;SDS011;59357;51.514;7.438;2022-07-10T19:41:45;3.57;;;2.80;;
71534;SDS011;59357;51.514;7.438;2022-07-10T19:44:11;4.00;;;3.10;;
71534;SDS011;59357;51.514;7.438;2022-07-10T19:46:37;2.73;;;2.43;;
71534;SDS011;59357;51.514;7.438;2022-07-10T19:49:03;3.50;;;3.20;;
71534;SDS011;59357;51.514;7.438;2022-07-10T19:51:29;3.83;;;3.50;;
71534;SDS011;59357;51.514;7.438;2022-07-10T19:53:55;6.23;;;4.03;;
71534;SDS011;59357;51.514;7.438;2022-07-10T19:56:21;3.20;;;3.00;;
71534;SDS011;59357;51.514;7.438;2022-07-10T19:58:49;4.67;;;3.10;;
71534;SDS011;59357;51.514;7.438;2022-07-10T20:01:15;4.03;;;2.50;;
71534;SDS011;59357;51.514;7.438;2022-07-10T20:06:44;2.53;;;2.40;;
71534;SDS011;59357;51.514;7.438;2022-07-10T20:09:13;3.00;;;2.70;;
71534;SDS011;59357;51.514;7.438;2022-07-10T20:11:39;3.97;;;3.00;;
71534;SDS011;59357;51.514;7.438;2022-07-10T20:14:05;4.17;;;2.53;;
71534;SDS011;59357;51.514;7.438;2022-07-10T20:16:36;4.13;;;2.50;;
71534;SDS011;59357;51.514;7.438;2022-07-10T20:19:05;3.20;;;2.93;;
71534;SDS011;59357;51.514;7.438;2022-07-10T20:21:31;2.77;;;2.57;;
71534;SDS011;59357;51.514;7.438;2022-07-10T20:23:57;2.50;;;2.40;;
71534;SDS011;59357;51.514;7.438;2022-07-10T20:26:23;6.83;;;2.87;;
71534;SDS011;59357;51.514;7.438;2022-07-10T20:28:49;3.03;;;2.40;;
71534;SDS011;59357;51.514;7.438;2022-07-10T20:31:18;3.70;;;2.60;;
71534;SDS011;59357;51.514;7.438;2022-07-10T20:33:44;2.60;;;2.47;;
71534;SDS011;59357;51.514;7.438;2022-07-10T20:36:10;3.20;;;2.60;;
71534;SDS011;59357;51.514;7.438;2022-07-10T20:38:58;3.00;;;2.80;;
71534;SDS011;59357;51.514;7.438;2022-07-10T20:41:25;2.83;;;2.63;;
71534;SDS011;59357;51.514;7.438;2022-07-10T20:43:51;4.67;;;2.80;;
71534;SDS011;59357;51.514;7.438;2022-07-10T20:46:17;2.70;;;2.57;;
71534;SDS011;59357;51.514;7.438;2022-07-10T20:48:44;3.40;;;2.80;;
71534;SDS011;59357;51.514;7.438;2022-07-10T20:51:10;5.13;;;3.17;;
71534;SDS011;59357;51.514;7.438;2022-07-10T20:53:36;3.00;;;2.80;;
71534;SDS011;59357;51.514;7.438;2022-07-10T20:59:00;2.67;;;2.57;;
71534;SDS011;59357;51.514;7.438;2022-07-10T21:01:26;2.67;;;2.33;;
71534;SDS011;59357;51.514;7.438;2022-07-10T21:03:52;3.67;;;2.67;;
71534;SDS011;59357;51.514;7.438;2022-07-10T21:06:19;3.70;;;2.30;;
71534;SDS011;59357;51.514;7.438;2022-07-10T21:08:45;4.53;;;2.70;;
71534;SDS011;59357;51.514;7.438;2022-07-10T21:11:14;3.17;;;2.67;;
71534;SDS011;59357;51.514;7.438;2022-07-10T21:13:40;2.73;;;2.63;;
71534;SDS011;59357;51.514;7.438;2022-07-10T21:16:06;2.60;;;2.60;;
71534;SDS011;59357;51.514;7.438;2022-07-10T21:18:38;3.33;;;3.03;;
71534;SDS011;59357;51.514;7.438;2022-07-10T21:21:07;4.13;;;2.77;;
71534;SDS011;59357;51.514;7.438;2022-07-10T21:23:33;3.10;;;2.90;;
71534;SDS011;59357;51.514;7.438;2022-07-10T21:26:00;5.63;;;2.80;;
71534;SDS011;59357;51.514;7.438;2022-07-10T21:28:26;3.70;;;3.13;;
71534;SDS011;59357;51.514;7.438;2022-07-10T21:30:52;3.40;;;3.20;;
71534;SDS011;59357;51.514;7.438;2022-07-10T21:33:18;3.43;;;2.90;;
71534;SDS011;59357;51.514;7.438;2022-07-10T21:35:43;3.10;;;2.90;;
71534;SDS011;59357;51.514;7.438;2022-07-10T21:38:11;3.07;;;2.87;;
71534;SDS011;59357;51.514;7.438;2022-07-10T21:40:37;3.50;;;3.20;;
71534;SDS011;59357;51.514;7.438;2022-07-10T21:43:03;3.40;;;3.10;;
71534;SDS011;59357;51.514;7.438;2022-07-10T21:45:29;3.07;;;2.90;;
71534;SDS011;59357;51.514;7.438;2022-07-10T21:47:55;4.77;;;3.50;;
71534;SDS011;59357;51.514;7.438;2022-07-10T21:50:21;2.97;;;2.73;;
71534;SDS011;59357;51.514;7.438;2022-07-10T21:52:47;3.00;;;2.90;;
71534;SDS011;59357;51.514;7.438;2022-07-10T21:55:13;3.30;;;3.00;;
71534;SDS011;59357;51.514;7.438;2022-07-10T21:57:38;3.53;;;3.17;;
71534;SDS011;59357;51.514;7.438;2022-07-10T22:00:05;5.53;;;3.37;;
71534;SDS011;59357;51.514;7.438;2022-07-10T22:02:42;3.43;;;3.20;;
71534;SDS011;59357;51.514;7.438;2022-07-10T22:05:13;3.77;;;3.07;;
71534;SDS011;59357;51.514;7.438;2022-07-10T22:07:39;3.90;;;3.60;;
71534;SDS011;59357;51.514;7.438;2022-07-10T22:10:07;4.37;;;3.30;;
71534;SDS011;59357;51.514;7.438;2022-07-10T22:12:35;3.53;;;3.43;;
71534;SDS011;59357;51.514;7.438;2022-07-10T22:15:05;3.30;;;3.20;;
71534;SDS011;59357;51.514;7.438;2022-07-10T22:18:11;5.47;;;3.90;;
71534;SDS011;59357;51.514;7.438;2022-07-10T22:20:43;3.77;;;3.63;;
71534;SDS011;59357;51.514;7.438;2022-07-10T22:23:15;4.30;;;4.10;;
71534;SDS011;59357;51.514;7.438;2022-07-10T22:25:41;4.13;;;3.93;;
71534;SDS011;59357;51.514;7.438;2022-07-10T22:28:07;3.97;;;3.80;;
71534;SDS011;59357;51.514;7.438;2022-07-10T22:30:32;4.10;;;3.80;;
71534;SDS011;59357;51.514;7.438;2022-07-10T22:33:17;4.10;;;3.80;;
71534;SDS011;59357;51.514;7.438;2022-07-10T22:35:43;7.40;;;6.73;;
71534;SDS011;59357;51.514;7.438;2022-07-10T22:38:11;10.63;;;9.83;;
71534;SDS011;59357;51.514;7.438;2022-07-10T22:45:09;21.87;;;12.20;;
71534;SDS011;59357;51.514;7.438;2022-07-10T22:47:35;146.20;;;69.63;;
71534;SDS011;59357;51.514;7.438;2022-07-10T22:50:01;278.50;;;142.53;;
71534;SDS011;59357;51.514;7.438;2022-07-10T22:52:27;396.67;;;248.50;;
71534;SDS011;59357;51.514;7.438;2022-07-10T22:58:58;123.47;;;67.23;;
71534;SDS011;59357;51.514;7.438;2022-07-10T23:01:59;21.50;;;14.40;;
71534;SDS011;59357;51.514;7.438;2022-07-10T23:04:29;15.13;;;10.17;;
71534;SDS011;59357;51.514;7.438;2022-07-10T23:06:56;41.87;;;24.37;;
71534;SDS011;59357;51.514;7.438;2022-07-10T23:09:22;71.13;;;35.57;;
71534;SDS011;59357;51.514;7.438;2022-07-10T23:11:48;102.00;;;42.80;;
71534;SDS011;59357;51.514;7.438;2022-07-10T23:14:14;46.50;;;21.70;;
71534;SDS011;59357;51.514;7.438;2022-07-10T23:24:31;6.30;;;5.00;;
71534;SDS011;59357;51.514;7.438;2022-07-10T23:26:57;7.80;;;4.50;;
71534;SDS011;59357;51.514;7.438;2022-07-10T23:29:23;6.33;;;4.70;;
71534;SDS011;59357;51.514;7.438;2022-07-10T23:31:49;5.20;;;4.60;;
71534;SDS011;59357;51.514;7.438;2022-07-10T23:34:15;4.83;;;4.53;;
71534;SDS011;59357;51.514;7.438;2022-07-10T23:36:41;4.43;;;4.00;;
71534;SDS011;59357;51.514;7.438;2022-07-10T23:39:07;4.73;;;3.73;;
71534;SDS011;59357;51.514;7.438;2022-07-10T23:41:38;4.20;;;3.93;;
71534;SDS011;59357;51.514;7.438;2022-07-10T23:44:04;4.50;;;4.17;;
71534;SDS011;59357;51.514;7.438;2022-07-10T23:46:30;4.97;;;3.80;;
71534;SDS011;59357;51.514;7.438;2022-07-10T23:48:56;5.27;;;4.53;;
71534;SDS011;59357;51.514;7.438;2022-07-10T23:51:52;4.53;;;4.27;;
71534;SDS011;59357;51.514;7.438;2022-07-10T23:54:20;4.70;;;4.30;;
71534;SDS011;59357;51.514;7.438;2022-07-10T23:56:46;4.53;;;4.23;;
71534;SDS011;59357;51.514;7.438;2022-07-10T23:59:12;4.53;;;4.17;;
